createdAt,value
2023-01-07T00:00:01.529Z,124.6
2023-01-07T00:05:01.893Z,124.1
2023-01-07T00:10:01.371Z,139.1
2023-01-07T00:15:01.213Z,138.1
2023-01-07T00:20:01.071Z,137.9
2023-01-07T00:25:01.174Z,137.8
2023-01-07T00:30:01.142Z,141.6
2023-01-07T00:35:01.153Z,129.3
2023-01-07T00:40:00.996Z,134.0
2023-01-07T00:45:01.128Z,139.8
2023-01-07T00:50:01.310Z,139.4
2023-01-07T00:55:01.223Z,175.9
2023-01-07T01:00:01.215Z,181.4
2023-01-07T01:05:01.223Z,197.0
2023-01-07T01:15:01.275Z,202.0
2023-01-07T01:20:01.110Z,173.3
2023-01-07T01:25:01.733Z,181.4
2023-01-07T01:30:01.459Z,180.4
2023-01-07T01:35:01.426Z,182.4
2023-01-07T01:40:01.130Z,183.0
2023-01-07T01:45:01.269Z,182.2
2023-01-07T01:50:01.175Z,181.0
2023-01-07T01:55:01.341Z,179.6
2023-01-07T02:00:01.165Z,195.6
2023-01-07T02:05:01.304Z,233.3
2023-01-07T02:10:01.208Z,232.6
2023-01-07T02:15:01.384Z,222.3
2023-01-07T02:20:01.252Z,220.0
2023-01-07T02:40:01.332Z,191.6
2023-01-07T02:45:01.114Z,189.8
2023-01-07T03:00:01.765Z,145.8
2023-01-07T03:20:01.745Z,290.4
2023-01-07T03:25:01.077Z,244.4
2023-01-07T03:30:01.023Z,218.5
2023-01-07T03:35:01.168Z,226.6
2023-01-07T03:40:01.490Z,231.5
2023-01-07T03:45:01.116Z,222.8
2023-01-07T03:50:01.077Z,242.0
2023-01-07T03:55:01.182Z,249.4
2023-01-07T04:00:01.185Z,236.8
2023-01-07T04:05:01.135Z,227.6
2023-01-07T04:10:01.086Z,217.9
2023-01-07T04:15:01.220Z,201.4
2023-01-07T04:20:01.217Z,191.2
2023-01-07T04:25:01.243Z,184.9
2023-01-07T04:30:01.119Z,178.0
2023-01-07T04:35:01.206Z,172.8
2023-01-07T04:40:01.253Z,159.5
2023-01-07T04:45:01.417Z,157.3
2023-01-07T04:50:01.051Z,155.4
2023-01-07T04:55:01.620Z,151.5
2023-01-07T05:00:01.137Z,146.2
2023-01-07T05:05:01.066Z,144.4
2023-01-07T05:10:01.069Z,146.4
2023-01-07T05:15:01.067Z,147.2
2023-01-07T05:20:01.120Z,144.1
2023-01-07T05:25:01.122Z,144.8
2023-01-07T05:30:01.020Z,154.0
2023-01-07T05:35:01.119Z,153.9
2023-01-07T05:40:01.139Z,155.1
2023-01-07T05:45:01.047Z,160.8
2023-01-07T05:50:00.983Z,163.7
2023-01-07T05:55:01.056Z,160.3
2023-01-07T06:00:01.103Z,161.1
2023-01-07T06:05:01.154Z,164.0
2023-01-07T06:10:02.883Z,165.5
2023-01-07T06:15:01.106Z,172.8
2023-01-07T06:20:01.096Z,178.0
2023-01-07T06:25:01.051Z,173.6
2023-01-07T06:30:00.992Z,170.0
2023-01-07T06:35:01.033Z,170.7
2023-01-07T06:40:01.115Z,162.2
2023-01-07T06:45:01.187Z,161.5
2023-01-07T06:50:00.976Z,172.1
2023-01-07T06:55:01.048Z,181.7
2023-01-07T07:00:01.464Z,182.9
2023-01-07T07:05:01.163Z,188.6
2023-01-07T07:10:01.029Z,187.9
2023-01-07T07:15:01.221Z,187.6
2023-01-07T07:20:06.169Z,187.9
2023-01-07T07:25:01.173Z,181.8
2023-01-07T07:30:01.054Z,172.8
2023-01-07T07:35:01.175Z,165.8
2023-01-07T07:40:01.123Z,161.2
2023-01-07T07:45:01.099Z,153.8
2023-01-07T07:50:01.069Z,153.4
2023-01-07T07:55:19.767Z,154.5
2023-01-07T08:00:01.225Z,154.7
2023-01-07T08:05:01.174Z,152.7
2023-01-07T08:10:01.381Z,152.8
2023-01-07T08:15:01.170Z,151.3
2023-01-07T08:20:01.590Z,150.5
2023-01-07T08:25:06.496Z,148.6
2023-01-07T08:30:01.366Z,146.9
2023-01-07T08:35:01.097Z,144.6
2023-01-07T08:40:01.210Z,150.3
2023-01-07T08:45:01.178Z,153.6
2023-01-07T08:50:01.025Z,160.1
2023-01-07T08:55:01.572Z,167.6
2023-01-07T09:00:01.154Z,165.2
2023-01-07T09:05:01.094Z,158.0
2023-01-07T09:10:01.107Z,152.6
2023-01-07T09:15:01.096Z,146.2
2023-01-07T09:20:01.537Z,138.6
2023-01-07T09:25:01.652Z,139.1
2023-01-07T09:30:01.032Z,139.4
2023-01-07T09:35:01.079Z,140.7
2023-01-07T09:40:01.180Z,144.8
2023-01-07T09:45:01.177Z,142.3
2023-01-07T09:50:01.088Z,142.4
2023-01-07T09:55:01.146Z,142.3
2023-01-07T10:00:01.136Z,140.9
2023-01-07T10:05:01.090Z,137.6
2023-01-07T10:20:01.596Z,135.4
2023-01-07T10:25:01.470Z,136.8
2023-01-07T10:30:01.346Z,133.0
2023-01-07T10:40:01.576Z,131.9
2023-01-07T10:45:05.783Z,130.6
2023-01-07T10:50:01.741Z,130.2
2023-01-07T11:10:02.565Z,141.6
2023-01-07T11:15:01.220Z,143.9
2023-01-07T11:20:01.168Z,141.7
2023-01-07T11:25:01.269Z,139.3
2023-01-07T11:40:00.943Z,133.8
2023-01-07T11:45:01.284Z,131.6
2023-01-07T11:50:01.040Z,130.3
2023-01-07T11:55:00.782Z,131.5
2023-01-07T12:00:00.840Z,129.1
2023-01-07T12:05:00.789Z,130.2
2023-01-07T12:20:01.645Z,155.4
2023-01-07T12:25:01.504Z,149.8
2023-01-07T12:40:00.985Z,154.0
2023-01-07T12:45:00.868Z,153.9
2023-01-07T12:50:00.808Z,156.4
2023-01-07T12:55:01.018Z,155.5
2023-01-07T13:00:00.946Z,160.5
2023-01-07T13:05:00.968Z,162.3
2023-01-07T13:20:03.942Z,132.2
2023-01-07T13:25:02.247Z,136.3
2023-01-07T13:40:01.268Z,149.6
2023-01-07T13:45:01.245Z,141.2
2023-01-07T13:50:01.249Z,143.7
2023-01-07T13:55:01.212Z,144.7
2023-01-07T14:10:02.029Z,150.0
2023-01-07T14:15:01.920Z,136.6
2023-01-07T14:30:15.813Z,122.0
2023-01-07T14:35:01.520Z,123.7
2023-01-07T14:40:01.053Z,122.2
2023-01-07T15:00:01.890Z,119.0
2023-01-07T15:05:07.751Z,116.7
2023-01-07T15:20:01.268Z,104.0
2023-01-07T15:25:01.285Z,101.6
2023-01-07T15:40:01.810Z,91.0
2023-01-07T15:45:01.784Z,91.3
2023-01-07T15:50:01.655Z,91.2
2023-01-07T16:10:01.419Z,99.2
2023-01-07T16:15:02.994Z,97.6
2023-01-07T16:30:01.981Z,100.8
2023-01-07T16:35:01.989Z,100.2
2023-01-07T16:40:01.619Z,98.8
2023-01-07T16:45:01.677Z,99.8
2023-01-07T16:50:01.708Z,101.1
2023-01-07T17:10:01.596Z,115.6
2023-01-07T17:15:01.393Z,108.9
2023-01-07T17:30:01.003Z,100.8
2023-01-07T17:35:00.918Z,99.7
2023-01-07T17:40:00.847Z,117.7
2023-01-07T17:45:00.897Z,113.5
2023-01-07T17:50:00.954Z,112.8
2023-01-07T17:55:00.919Z,112.1
2023-01-07T18:00:00.871Z,111.8
2023-01-07T18:05:00.954Z,101.0
2023-01-07T18:15:01.399Z,99.2
2023-01-07T18:20:00.813Z,100.7
2023-01-07T18:25:00.881Z,100.8
2023-01-07T18:30:00.822Z,101.1
2023-01-07T18:35:01.065Z,101.2
2023-01-07T18:40:00.892Z,101.8
2023-01-07T18:45:01.940Z,101.3
2023-01-07T18:50:00.832Z,103.7
2023-01-07T18:55:01.079Z,104.0
2023-01-07T19:00:01.864Z,103.9
2023-01-07T19:05:00.957Z,103.6
2023-01-07T19:10:00.832Z,103.8
2023-01-07T19:15:01.194Z,102.2
2023-01-07T19:20:01.026Z,101.4
2023-01-07T19:30:06.063Z,101.1
2023-01-07T19:35:00.965Z,102.1
2023-01-07T19:40:00.839Z,101.7
2023-01-07T19:45:00.969Z,101.3
2023-01-07T19:50:00.960Z,101.0
2023-01-07T19:55:00.918Z,99.7
2023-01-07T20:00:01.405Z,97.3
2023-01-07T20:05:00.962Z,96.2
2023-01-07T20:10:01.287Z,96.3
2023-01-07T20:15:01.061Z,96.2
2023-01-07T20:20:00.850Z,109.2
2023-01-07T20:25:00.943Z,109.5
2023-01-07T20:30:00.904Z,110.9
2023-01-07T20:35:01.006Z,111.9
2023-01-07T20:40:00.884Z,110.9
2023-01-07T20:45:00.949Z,96.7
2023-01-07T20:50:01.002Z,95.3
2023-01-07T20:55:00.927Z,94.5
2023-01-07T21:00:00.859Z,93.4
2023-01-07T21:05:00.882Z,101.5
2023-01-07T21:10:00.968Z,104.5
2023-01-07T21:15:00.960Z,109.4
2023-01-07T21:20:00.809Z,113.5
2023-01-07T21:25:00.869Z,118.9
2023-01-07T21:30:00.931Z,124.8
2023-01-07T21:35:00.931Z,125.4
2023-01-07T21:40:00.805Z,123.2
2023-01-07T21:45:00.963Z,125.0
2023-01-07T21:50:00.925Z,128.7
2023-01-07T21:55:00.869Z,127.7
2023-01-07T22:00:00.796Z,139.4
2023-01-07T22:05:00.935Z,153.3
2023-01-07T22:10:00.910Z,169.6
2023-01-07T22:15:00.922Z,172.8
2023-01-07T22:20:00.865Z,182.8
2023-01-07T22:25:01.947Z,191.5
2023-01-07T22:30:00.936Z,201.9
2023-01-07T22:35:00.964Z,201.5
2023-01-07T22:40:00.833Z,212.3
2023-01-07T22:45:00.961Z,209.7
2023-01-07T22:50:00.950Z,209.0
2023-01-07T22:55:05.936Z,203.4
2023-01-07T23:00:00.845Z,221.7
2023-01-07T23:05:01.002Z,215.9
2023-01-07T23:10:05.974Z,214.0
2023-01-07T23:15:01.955Z,208.9
2023-01-07T23:20:05.871Z,201.2
2023-01-07T23:25:00.928Z,176.3
2023-01-07T23:30:00.899Z,177.8
2023-01-07T23:35:01.012Z,176.2
2023-01-07T23:40:00.891Z,167.4
2023-01-07T23:45:06.075Z,178.8
2023-01-07T23:50:00.940Z,175.2
2023-01-07T23:55:01.024Z,168.5
